sensor_id;sensor_type;location;lat;lon;timestamp;P1;durP1;ratioP1;P2;durP2;ratioP2
15841;SDS011;8021;48.022;11.812;2024-03-22T00:02:10;0.30;;;0.30;;
15841;SDS011;8021;48.022;11.812;2024-03-22T00:04:36;0.40;;;0.40;;
15841;SDS011;8021;48.022;11.812;2024-03-22T00:07:03;0.40;;;0.40;;
15841;SDS011;8021;48.022;11.812;2024-03-22T00:09:29;0.32;;;0.32;;
15841;SDS011;8021;48.022;11.812;2024-03-22T00:11:56;0.40;;;0.40;;
15841;SDS011;8021;48.022;11.812;2024-03-22T00:14:23;0.40;;;0.40;;
15841;SDS011;8021;48.022;11.812;2024-03-22T00:16:49;0.40;;;0.40;;
15841;SDS011;8021;48.022;11.812;2024-03-22T00:19:15;0.30;;;0.30;;
15841;SDS011;8021;48.022;11.812;2024-03-22T00:21:42;0.45;;;0.45;;
15841;SDS011;8021;48.022;11.812;2024-03-22T00:24:08;0.30;;;0.30;;
15841;SDS011;8021;48.022;11.812;2024-03-22T00:26:34;0.40;;;0.40;;
15841;SDS011;8021;48.022;11.812;2024-03-22T00:29:00;0.40;;;0.40;;
15841;SDS011;8021;48.022;11.812;2024-03-22T00:31:28;0.40;;;0.40;;
15841;SDS011;8021;48.022;11.812;2024-03-22T00:33:54;0.40;;;0.40;;
15841;SDS011;8021;48.022;11.812;2024-03-22T00:36:20;0.30;;;0.30;;
15841;SDS011;8021;48.022;11.812;2024-03-22T00:38:46;0.40;;;0.40;;
15841;SDS011;8021;48.022;11.812;2024-03-22T00:41:13;0.40;;;0.40;;
15841;SDS011;8021;48.022;11.812;2024-03-22T00:43:39;0.50;;;0.50;;
15841;SDS011;8021;48.022;11.812;2024-03-22T00:46:06;0.35;;;0.35;;
15841;SDS011;8021;48.022;11.812;2024-03-22T00:48:34;0.40;;;0.40;;
15841;SDS011;8021;48.022;11.812;2024-03-22T00:51:01;0.40;;;0.40;;
15841;SDS011;8021;48.022;11.812;2024-03-22T00:53:27;0.40;;;0.40;;
15841;SDS011;8021;48.022;11.812;2024-03-22T00:55:55;0.30;;;0.30;;
15841;SDS011;8021;48.022;11.812;2024-03-22T00:58:21;0.50;;;0.50;;
15841;SDS011;8021;48.022;11.812;2024-03-22T01:00:48;0.47;;;0.47;;
15841;SDS011;8021;48.022;11.812;2024-03-22T01:03:13;0.50;;;0.50;;
15841;SDS011;8021;48.022;11.812;2024-03-22T01:05:42;0.40;;;0.40;;
15841;SDS011;8021;48.022;11.812;2024-03-22T01:08:08;0.43;;;0.43;;
15841;SDS011;8021;48.022;11.812;2024-03-22T01:10:34;0.43;;;0.43;;
15841;SDS011;8021;48.022;11.812;2024-03-22T01:13:00;0.50;;;0.50;;
15841;SDS011;8021;48.022;11.812;2024-03-22T01:15:27;0.38;;;0.38;;
15841;SDS011;8021;48.022;11.812;2024-03-22T01:17:53;0.40;;;0.40;;
15841;SDS011;8021;48.022;11.812;2024-03-22T01:20:20;0.40;;;0.40;;
15841;SDS011;8021;48.022;11.812;2024-03-22T01:22:47;0.30;;;0.30;;
15841;SDS011;8021;48.022;11.812;2024-03-22T01:25:14;0.50;;;0.50;;
15841;SDS011;8021;48.022;11.812;2024-03-22T01:27:40;0.40;;;0.40;;
15841;SDS011;8021;48.022;11.812;2024-03-22T01:30:07;0.40;;;0.40;;
15841;SDS011;8021;48.022;11.812;2024-03-22T01:32:34;0.50;;;0.50;;
15841;SDS011;8021;48.022;11.812;2024-03-22T01:35:01;0.40;;;0.40;;
15841;SDS011;8021;48.022;11.812;2024-03-22T01:37:26;0.40;;;0.40;;
15841;SDS011;8021;48.022;11.812;2024-03-22T01:39:55;0.38;;;0.38;;
15841;SDS011;8021;48.022;11.812;2024-03-22T01:42:20;0.50;;;0.50;;
15841;SDS011;8021;48.022;11.812;2024-03-22T01:44:48;0.40;;;0.40;;
15841;SDS011;8021;48.022;11.812;2024-03-22T01:47:14;0.43;;;0.43;;
15841;SDS011;8021;48.022;11.812;2024-03-22T01:49:41;0.40;;;0.40;;
15841;SDS011;8021;48.022;11.812;2024-03-22T01:52:07;0.45;;;0.45;;
15841;SDS011;8021;48.022;11.812;2024-03-22T01:54:34;0.40;;;0.40;;
15841;SDS011;8021;48.022;11.812;2024-03-22T01:57:01;0.50;;;0.50;;
15841;SDS011;8021;48.022;11.812;2024-03-22T01:59:28;0.40;;;0.40;;
15841;SDS011;8021;48.022;11.812;2024-03-22T02:01:54;0.40;;;0.40;;
15841;SDS011;8021;48.022;11.812;2024-03-22T02:04:21;0.40;;;0.40;;
15841;SDS011;8021;48.022;11.812;2024-03-22T02:06:47;0.40;;;0.40;;
15841;SDS011;8021;48.022;11.812;2024-03-22T02:09:14;0.40;;;0.40;;
15841;SDS011;8021;48.022;11.812;2024-03-22T02:11:43;0.40;;;0.40;;
15841;SDS011;8021;48.022;11.812;2024-03-22T02:14:11;0.50;;;0.50;;
15841;SDS011;8021;48.022;11.812;2024-03-22T02:16:39;0.40;;;0.40;;
15841;SDS011;8021;48.022;11.812;2024-03-22T02:19:06;0.40;;;0.40;;
15841;SDS011;8021;48.022;11.812;2024-03-22T02:21:32;0.40;;;0.40;;
15841;SDS011;8021;48.022;11.812;2024-03-22T02:24:00;0.40;;;0.40;;
15841;SDS011;8021;48.022;11.812;2024-03-22T02:26:26;0.50;;;0.50;;
15841;SDS011;8021;48.022;11.812;2024-03-22T02:28:53;0.40;;;0.40;;
15841;SDS011;8021;48.022;11.812;2024-03-22T02:31:19;0.40;;;0.40;;
15841;SDS011;8021;48.022;11.812;2024-03-22T02:33:46;0.40;;;0.40;;
15841;SDS011;8021;48.022;11.812;2024-03-22T02:36:13;0.47;;;0.47;;
15841;SDS011;8021;48.022;11.812;2024-03-22T02:38:40;0.40;;;0.40;;
15841;SDS011;8021;48.022;11.812;2024-03-22T02:41:07;0.50;;;0.50;;
15841;SDS011;8021;48.022;11.812;2024-03-22T02:43:33;0.40;;;0.40;;
15841;SDS011;8021;48.022;11.812;2024-03-22T02:45:59;0.40;;;0.40;;
15841;SDS011;8021;48.022;11.812;2024-03-22T02:48:26;0.40;;;0.40;;
15841;SDS011;8021;48.022;11.812;2024-03-22T02:50:55;0.40;;;0.40;;
15841;SDS011;8021;48.022;11.812;2024-03-22T02:53:21;0.40;;;0.40;;
15841;SDS011;8021;48.022;11.812;2024-03-22T02:55:47;0.40;;;0.40;;
15841;SDS011;8021;48.022;11.812;2024-03-22T02:58:16;0.50;;;0.50;;
15841;SDS011;8021;48.022;11.812;2024-03-22T03:00:42;0.40;;;0.40;;
15841;SDS011;8021;48.022;11.812;2024-03-22T03:03:09;0.50;;;0.50;;
15841;SDS011;8021;48.022;11.812;2024-03-22T03:05:35;0.38;;;0.38;;
15841;SDS011;8021;48.022;11.812;2024-03-22T03:08:01;0.40;;;0.40;;
15841;SDS011;8021;48.022;11.812;2024-03-22T03:10:29;0.40;;;0.40;;
15841;SDS011;8021;48.022;11.812;2024-03-22T03:12:55;0.40;;;0.40;;
15841;SDS011;8021;48.022;11.812;2024-03-22T03:15:23;0.38;;;0.38;;
15841;SDS011;8021;48.022;11.812;2024-03-22T03:17:48;0.47;;;0.47;;
15841;SDS011;8021;48.022;11.812;2024-03-22T03:20:17;0.30;;;0.30;;
15841;SDS011;8021;48.022;11.812;2024-03-22T03:22:42;0.40;;;0.40;;
15841;SDS011;8021;48.022;11.812;2024-03-22T03:25:09;0.47;;;0.47;;
15841;SDS011;8021;48.022;11.812;2024-03-22T03:27:35;0.40;;;0.40;;
15841;SDS011;8021;48.022;11.812;2024-03-22T03:30:02;0.40;;;0.40;;
15841;SDS011;8021;48.022;11.812;2024-03-22T03:32:29;0.35;;;0.35;;
15841;SDS011;8021;48.022;11.812;2024-03-22T03:34:56;0.40;;;0.40;;
15841;SDS011;8021;48.022;11.812;2024-03-22T03:37:22;0.30;;;0.30;;
15841;SDS011;8021;48.022;11.812;2024-03-22T03:39:48;0.40;;;0.40;;
15841;SDS011;8021;48.022;11.812;2024-03-22T03:42:14;0.40;;;0.40;;
15841;SDS011;8021;48.022;11.812;2024-03-22T03:44:41;0.40;;;0.40;;
15841;SDS011;8021;48.022;11.812;2024-03-22T03:47:07;0.40;;;0.40;;
15841;SDS011;8021;48.022;11.812;2024-03-22T03:49:35;0.40;;;0.40;;
15841;SDS011;8021;48.022;11.812;2024-03-22T03:52:00;0.40;;;0.40;;
15841;SDS011;8021;48.022;11.812;2024-03-22T03:54:27;0.43;;;0.43;;
15841;SDS011;8021;48.022;11.812;2024-03-22T03:56:53;0.40;;;0.40;;
15841;SDS011;8021;48.022;11.812;2024-03-22T03:59:20;0.40;;;0.40;;
15841;SDS011;8021;48.022;11.812;2024-03-22T04:01:46;0.40;;;0.40;;
15841;SDS011;8021;48.022;11.812;2024-03-22T04:04:13;0.40;;;0.40;;
15841;SDS011;8021;48.022;11.812;2024-03-22T04:06:40;0.50;;;0.50;;
15841;SDS011;8021;48.022;11.812;2024-03-22T04:09:07;0.40;;;0.40;;
15841;SDS011;8021;48.022;11.812;2024-03-22T04:11:32;0.40;;;0.40;;
15841;SDS011;8021;48.022;11.812;2024-03-22T04:13:59;0.43;;;0.43;;
15841;SDS011;8021;48.022;11.812;2024-03-22T04:16:25;0.50;;;0.50;;
15841;SDS011;8021;48.022;11.812;2024-03-22T04:18:52;0.40;;;0.40;;
15841;SDS011;8021;48.022;11.812;2024-03-22T04:21:18;0.30;;;0.30;;
15841;SDS011;8021;48.022;11.812;2024-03-22T04:23:46;0.45;;;0.45;;
15841;SDS011;8021;48.022;11.812;2024-03-22T04:26:12;0.40;;;0.40;;
15841;SDS011;8021;48.022;11.812;2024-03-22T04:28:39;0.40;;;0.40;;
15841;SDS011;8021;48.022;11.812;2024-03-22T04:31:05;0.40;;;0.40;;
15841;SDS011;8021;48.022;11.812;2024-03-22T04:33:33;0.40;;;0.40;;
15841;SDS011;8021;48.022;11.812;2024-03-22T04:35:59;0.40;;;0.40;;
15841;SDS011;8021;48.022;11.812;2024-03-22T04:38:26;0.40;;;0.40;;
15841;SDS011;8021;48.022;11.812;2024-03-22T04:40:54;0.40;;;0.40;;
15841;SDS011;8021;48.022;11.812;2024-03-22T04:43:22;0.45;;;0.45;;
15841;SDS011;8021;48.022;11.812;2024-03-22T04:45:49;0.40;;;0.40;;
15841;SDS011;8021;48.022;11.812;2024-03-22T04:48:16;0.47;;;0.47;;
15841;SDS011;8021;48.022;11.812;2024-03-22T04:50:42;0.40;;;0.40;;
15841;SDS011;8021;48.022;11.812;2024-03-22T04:53:09;0.30;;;0.30;;
15841;SDS011;8021;48.022;11.812;2024-03-22T04:55:35;0.40;;;0.40;;
15841;SDS011;8021;48.022;11.812;2024-03-22T04:58:03;0.40;;;0.40;;
15841;SDS011;8021;48.022;11.812;2024-03-22T05:00:29;0.40;;;0.40;;
15841;SDS011;8021;48.022;11.812;2024-03-22T05:02:55;0.50;;;0.50;;
15841;SDS011;8021;48.022;11.812;2024-03-22T05:05:21;0.50;;;0.50;;
15841;SDS011;8021;48.022;11.812;2024-03-22T05:07:48;0.30;;;0.30;;
15841;SDS011;8021;48.022;11.812;2024-03-22T05:10:14;0.40;;;0.40;;
15841;SDS011;8021;48.022;11.812;2024-03-22T05:12:42;0.50;;;0.50;;
15841;SDS011;8021;48.022;11.812;2024-03-22T05:15:09;0.40;;;0.40;;
15841;SDS011;8021;48.022;11.812;2024-03-22T05:17:36;0.40;;;0.40;;
15841;SDS011;8021;48.022;11.812;2024-03-22T05:20:02;0.40;;;0.40;;
15841;SDS011;8021;48.022;11.812;2024-03-22T05:22:28;0.40;;;0.40;;
15841;SDS011;8021;48.022;11.812;2024-03-22T05:24:54;0.40;;;0.40;;
15841;SDS011;8021;48.022;11.812;2024-03-22T05:27:21;0.30;;;0.30;;
15841;SDS011;8021;48.022;11.812;2024-03-22T05:29:47;0.40;;;0.40;;
15841;SDS011;8021;48.022;11.812;2024-03-22T05:32:15;0.40;;;0.40;;
15841;SDS011;8021;48.022;11.812;2024-03-22T05:34:41;0.40;;;0.40;;
15841;SDS011;8021;48.022;11.812;2024-03-22T05:37:07;0.40;;;0.40;;
15841;SDS011;8021;48.022;11.812;2024-03-22T05:39:34;0.32;;;0.32;;
15841;SDS011;8021;48.022;11.812;2024-03-22T05:42:01;0.40;;;0.40;;
15841;SDS011;8021;48.022;11.812;2024-03-22T05:44:27;0.40;;;0.40;;
15841;SDS011;8021;48.022;11.812;2024-03-22T05:46:54;0.40;;;0.40;;
15841;SDS011;8021;48.022;11.812;2024-03-22T05:49:21;0.40;;;0.40;;
15841;SDS011;8021;48.022;11.812;2024-03-22T05:51:47;0.40;;;0.40;;
15841;SDS011;8021;48.022;11.812;2024-03-22T05:54:13;0.38;;;0.38;;
15841;SDS011;8021;48.022;11.812;2024-03-22T05:56:40;0.20;;;0.20;;
15841;SDS011;8021;48.022;11.812;2024-03-22T05:59:06;0.30;;;0.30;;
15841;SDS011;8021;48.022;11.812;2024-03-22T06:01:33;0.30;;;0.30;;
15841;SDS011;8021;48.022;11.812;2024-03-22T06:03:58;0.30;;;0.30;;
15841;SDS011;8021;48.022;11.812;2024-03-22T06:06:27;0.40;;;0.40;;
15841;SDS011;8021;48.022;11.812;2024-03-22T06:08:52;0.30;;;0.30;;
15841;SDS011;8021;48.022;11.812;2024-03-22T06:11:20;0.30;;;0.30;;
15841;SDS011;8021;48.022;11.812;2024-03-22T06:13:46;0.30;;;0.30;;
15841;SDS011;8021;48.022;11.812;2024-03-22T06:16:13;0.30;;;0.30;;
15841;SDS011;8021;48.022;11.812;2024-03-22T06:18:39;0.43;;;0.43;;
15841;SDS011;8021;48.022;11.812;2024-03-22T06:21:06;0.40;;;0.40;;
15841;SDS011;8021;48.022;11.812;2024-03-22T06:23:34;0.30;;;0.30;;
15841;SDS011;8021;48.022;11.812;2024-03-22T06:26:01;0.45;;;0.45;;
15841;SDS011;8021;48.022;11.812;2024-03-22T06:28:27;0.30;;;0.30;;
15841;SDS011;8021;48.022;11.812;2024-03-22T06:30:54;0.30;;;0.30;;
15841;SDS011;8021;48.022;11.812;2024-03-22T06:33:20;0.30;;;0.30;;
15841;SDS011;8021;48.022;11.812;2024-03-22T06:35:46;0.40;;;0.40;;
15841;SDS011;8021;48.022;11.812;2024-03-22T06:38:12;0.50;;;0.50;;
15841;SDS011;8021;48.022;11.812;2024-03-22T06:40:40;0.40;;;0.40;;
15841;SDS011;8021;48.022;11.812;2024-03-22T06:43:06;0.40;;;0.40;;
15841;SDS011;8021;48.022;11.812;2024-03-22T06:45:34;0.47;;;0.47;;
15841;SDS011;8021;48.022;11.812;2024-03-22T06:48:00;0.45;;;0.45;;
15841;SDS011;8021;48.022;11.812;2024-03-22T06:50:26;0.35;;;0.35;;
15841;SDS011;8021;48.022;11.812;2024-03-22T06:52:52;0.40;;;0.40;;
15841;SDS011;8021;48.022;11.812;2024-03-22T06:55:19;0.30;;;0.30;;
15841;SDS011;8021;48.022;11.812;2024-03-22T06:57:46;0.40;;;0.40;;
15841;SDS011;8021;48.022;11.812;2024-03-22T07:00:14;0.40;;;0.40;;
15841;SDS011;8021;48.022;11.812;2024-03-22T07:02:39;0.30;;;0.30;;
15841;SDS011;8021;48.022;11.812;2024-03-22T07:05:07;0.32;;;0.32;;
15841;SDS011;8021;48.022;11.812;2024-03-22T07:07:32;0.40;;;0.40;;
15841;SDS011;8021;48.022;11.812;2024-03-22T07:09:59;0.40;;;0.40;;
15841;SDS011;8021;48.022;11.812;2024-03-22T07:12:25;0.30;;;0.30;;
15841;SDS011;8021;48.022;11.812;2024-03-22T07:14:53;0.30;;;0.30;;
15841;SDS011;8021;48.022;11.812;2024-03-22T07:17:19;0.30;;;0.20;;
15841;SDS011;8021;48.022;11.812;2024-03-22T07:19:49;0.20;;;0.20;;
15841;SDS011;8021;48.022;11.812;2024-03-22T07:22:14;0.20;;;0.10;;
15841;SDS011;8021;48.022;11.812;2024-03-22T07:24:41;0.20;;;0.20;;
15841;SDS011;8021;48.022;11.812;2024-03-22T07:27:07;0.20;;;0.20;;
15841;SDS011;8021;48.022;11.812;2024-03-22T07:29:34;0.10;;;0.10;;
15841;SDS011;8021;48.022;11.812;2024-03-22T07:32:01;0.10;;;0.10;;
15841;SDS011;8021;48.022;11.812;2024-03-22T07:34:28;0.10;;;0.10;;
15841;SDS011;8021;48.022;11.812;2024-03-22T07:36:54;0.10;;;0.10;;
15841;SDS011;8021;48.022;11.812;2024-03-22T07:39:21;0.10;;;0.10;;
15841;SDS011;8021;48.022;11.812;2024-03-22T07:41:47;0.10;;;0.10;;
15841;SDS011;8021;48.022;11.812;2024-03-22T07:44:14;0.10;;;0.10;;
15841;SDS011;8021;48.022;11.812;2024-03-22T07:46:40;0.10;;;0.10;;
15841;SDS011;8021;48.022;11.812;2024-03-22T07:49:08;0.10;;;0.10;;
15841;SDS011;8021;48.022;11.812;2024-03-22T07:51:34;0.00;;;0.00;;
15841;SDS011;8021;48.022;11.812;2024-03-22T07:54:01;0.03;;;0.03;;
15841;SDS011;8021;48.022;11.812;2024-03-22T07:56:28;0.10;;;0.10;;
15841;SDS011;8021;48.022;11.812;2024-03-22T07:58:54;0.10;;;0.10;;
15841;SDS011;8021;48.022;11.812;2024-03-22T08:01:21;0.10;;;0.10;;
15841;SDS011;8021;48.022;11.812;2024-03-22T08:03:48;0.10;;;0.10;;
15841;SDS011;8021;48.022;11.812;2024-03-22T08:06:15;0.20;;;0.20;;
15841;SDS011;8021;48.022;11.812;2024-03-22T08:08:42;0.20;;;0.20;;
15841;SDS011;8021;48.022;11.812;2024-03-22T08:11:08;0.20;;;0.20;;
15841;SDS011;8021;48.022;11.812;2024-03-22T08:13:34;0.20;;;0.20;;
15841;SDS011;8021;48.022;11.812;2024-03-22T08:16:00;0.20;;;0.20;;
15841;SDS011;8021;48.022;11.812;2024-03-22T08:18:27;0.20;;;0.20;;
15841;SDS011;8021;48.022;11.812;2024-03-22T08:20:53;0.20;;;0.20;;
15841;SDS011;8021;48.022;11.812;2024-03-22T08:23:21;0.30;;;0.20;;
15841;SDS011;8021;48.022;11.812;2024-03-22T08:25:48;0.20;;;0.20;;
15841;SDS011;8021;48.022;11.812;2024-03-22T08:28:15;0.20;;;0.20;;
15841;SDS011;8021;48.022;11.812;2024-03-22T08:30:41;0.20;;;0.20;;
15841;SDS011;8021;48.022;11.812;2024-03-22T08:33:08;0.30;;;0.20;;
15841;SDS011;8021;48.022;11.812;2024-03-22T08:35:34;0.20;;;0.10;;
15841;SDS011;8021;48.022;11.812;2024-03-22T08:38:01;0.20;;;0.20;;
15841;SDS011;8021;48.022;11.812;2024-03-22T08:40:28;0.10;;;0.10;;
15841;SDS011;8021;48.022;11.812;2024-03-22T08:42:54;0.10;;;0.10;;
15841;SDS011;8021;48.022;11.812;2024-03-22T08:45:20;0.10;;;0.10;;
15841;SDS011;8021;48.022;11.812;2024-03-22T08:47:47;0.10;;;0.10;;
15841;SDS011;8021;48.022;11.812;2024-03-22T08:50:13;0.08;;;0.08;;
15841;SDS011;8021;48.022;11.812;2024-03-22T08:52:40;0.00;;;0.00;;
15841;SDS011;8021;48.022;11.812;2024-03-22T08:55:06;0.05;;;0.05;;
15841;SDS011;8021;48.022;11.812;2024-03-22T08:57:34;0.00;;;0.00;;
15841;SDS011;8021;48.022;11.812;2024-03-22T09:00:00;0.00;;;0.00;;
15841;SDS011;8021;48.022;11.812;2024-03-22T09:02:26;0.05;;;0.00;;
15841;SDS011;8021;48.022;11.812;2024-03-22T09:04:53;0.10;;;0.00;;
15841;SDS011;8021;48.022;11.812;2024-03-22T09:07:19;0.00;;;0.00;;
15841;SDS011;8021;48.022;11.812;2024-03-22T09:09:46;0.10;;;0.00;;
15841;SDS011;8021;48.022;11.812;2024-03-22T09:12:12;0.10;;;0.00;;
15841;SDS011;8021;48.022;11.812;2024-03-22T09:14:40;0.00;;;0.00;;
15841;SDS011;8021;48.022;11.812;2024-03-22T09:17:06;0.00;;;0.00;;
15841;SDS011;8021;48.022;11.812;2024-03-22T09:19:32;0.00;;;0.00;;
15841;SDS011;8021;48.022;11.812;2024-03-22T09:21:58;0.00;;;0.00;;
15841;SDS011;8021;48.022;11.812;2024-03-22T09:24:25;0.03;;;0.00;;
15841;SDS011;8021;48.022;11.812;2024-03-22T09:26:51;0.00;;;0.00;;
15841;SDS011;8021;48.022;11.812;2024-03-22T09:29:18;0.10;;;0.10;;
15841;SDS011;8021;48.022;11.812;2024-03-22T09:31:45;0.10;;;0.10;;
15841;SDS011;8021;48.022;11.812;2024-03-22T09:34:12;0.10;;;0.10;;
15841;SDS011;8021;48.022;11.812;2024-03-22T09:36:38;0.10;;;0.10;;
15841;SDS011;8021;48.022;11.812;2024-03-22T09:39:05;0.20;;;0.20;;
15841;SDS011;8021;48.022;11.812;2024-03-22T09:41:31;0.20;;;0.20;;
15841;SDS011;8021;48.022;11.812;2024-03-22T09:43:58;0.20;;;0.20;;
15841;SDS011;8021;48.022;11.812;2024-03-22T09:46:26;0.10;;;0.10;;
15841;SDS011;8021;48.022;11.812;2024-03-22T09:48:55;0.10;;;0.10;;
15841;SDS011;8021;48.022;11.812;2024-03-22T09:51:20;0.20;;;0.20;;
15841;SDS011;8021;48.022;11.812;2024-03-22T09:53:48;0.20;;;0.20;;
15841;SDS011;8021;48.022;11.812;2024-03-22T09:56:14;0.17;;;0.17;;
15841;SDS011;8021;48.022;11.812;2024-03-22T09:58:41;0.20;;;0.20;;
15841;SDS011;8021;48.022;11.812;2024-03-22T10:01:07;0.20;;;0.20;;
15841;SDS011;8021;48.022;11.812;2024-03-22T10:03:34;0.20;;;0.20;;
15841;SDS011;8021;48.022;11.812;2024-03-22T10:06:01;0.20;;;0.20;;
15841;SDS011;8021;48.022;11.812;2024-03-22T10:08:28;0.20;;;0.20;;
15841;SDS011;8021;48.022;11.812;2024-03-22T10:10:54;0.10;;;0.10;;
15841;SDS011;8021;48.022;11.812;2024-03-22T10:13:20;0.20;;;0.20;;
15841;SDS011;8021;48.022;11.812;2024-03-22T10:15:46;0.28;;;0.20;;
15841;SDS011;8021;48.022;11.812;2024-03-22T10:18:14;0.20;;;0.20;;
15841;SDS011;8021;48.022;11.812;2024-03-22T10:20:40;0.20;;;0.20;;
15841;SDS011;8021;48.022;11.812;2024-03-22T10:23:08;0.20;;;0.20;;
15841;SDS011;8021;48.022;11.812;2024-03-22T10:25:34;0.20;;;0.20;;
15841;SDS011;8021;48.022;11.812;2024-03-22T10:28:01;0.20;;;0.20;;
15841;SDS011;8021;48.022;11.812;2024-03-22T10:30:26;0.20;;;0.15;;
15841;SDS011;8021;48.022;11.812;2024-03-22T10:32:54;0.20;;;0.20;;
15841;SDS011;8021;48.022;11.812;2024-03-22T10:35:20;0.20;;;0.20;;
15841;SDS011;8021;48.022;11.812;2024-03-22T10:37:47;0.20;;;0.20;;
15841;SDS011;8021;48.022;11.812;2024-03-22T10:40:15;0.20;;;0.20;;
15841;SDS011;8021;48.022;11.812;2024-03-22T10:42:43;0.20;;;0.20;;
15841;SDS011;8021;48.022;11.812;2024-03-22T10:45:12;0.20;;;0.20;;
15841;SDS011;8021;48.022;11.812;2024-03-22T10:47:39;0.30;;;0.28;;
15841;SDS011;8021;48.022;11.812;2024-03-22T10:50:06;0.20;;;0.20;;
15841;SDS011;8021;48.022;11.812;2024-03-22T10:52:33;0.20;;;0.20;;
15841;SDS011;8021;48.022;11.812;2024-03-22T10:55:01;0.20;;;0.20;;
15841;SDS011;8021;48.022;11.812;2024-03-22T10:57:31;0.20;;;0.10;;
15841;SDS011;8021;48.022;11.812;2024-03-22T11:00:02;0.20;;;0.20;;
15841;SDS011;8021;48.022;11.812;2024-03-22T11:02:29;0.17;;;0.17;;
15841;SDS011;8021;48.022;11.812;2024-03-22T11:04:58;0.20;;;0.13;;
15841;SDS011;8021;48.022;11.812;2024-03-22T11:07:28;0.20;;;0.20;;
15841;SDS011;8021;48.022;11.812;2024-03-22T11:09:56;0.20;;;0.20;;
15841;SDS011;8021;48.022;11.812;2024-03-22T11:12:24;0.20;;;0.20;;
15841;SDS011;8021;48.022;11.812;2024-03-22T11:14:52;0.20;;;0.20;;
15841;SDS011;8021;48.022;11.812;2024-03-22T11:17:18;0.20;;;0.20;;
15841;SDS011;8021;48.022;11.812;2024-03-22T11:19:45;0.30;;;0.30;;
15841;SDS011;8021;48.022;11.812;2024-03-22T11:22:10;0.30;;;0.30;;
15841;SDS011;8021;48.022;11.812;2024-03-22T11:24:38;0.20;;;0.20;;
15841;SDS011;8021;48.022;11.812;2024-03-22T11:27:04;0.30;;;0.22;;
15841;SDS011;8021;48.022;11.812;2024-03-22T11:29:31;0.20;;;0.20;;
15841;SDS011;8021;48.022;11.812;2024-03-22T11:31:58;0.20;;;0.20;;
15841;SDS011;8021;48.022;11.812;2024-03-22T11:34:24;0.20;;;0.20;;
15841;SDS011;8021;48.022;11.812;2024-03-22T11:36:50;0.20;;;0.20;;
15841;SDS011;8021;48.022;11.812;2024-03-22T11:39:17;0.20;;;0.20;;
15841;SDS011;8021;48.022;11.812;2024-03-22T11:41:43;0.20;;;0.20;;
15841;SDS011;8021;48.022;11.812;2024-03-22T11:44:10;0.30;;;0.30;;
15841;SDS011;8021;48.022;11.812;2024-03-22T11:46:36;0.30;;;0.28;;
15841;SDS011;8021;48.022;11.812;2024-03-22T11:49:05;0.20;;;0.20;;
15841;SDS011;8021;48.022;11.812;2024-03-22T11:51:32;0.20;;;0.20;;
15841;SDS011;8021;48.022;11.812;2024-03-22T11:53:57;0.20;;;0.10;;
15841;SDS011;8021;48.022;11.812;2024-03-22T11:56:24;0.20;;;0.20;;
15841;SDS011;8021;48.022;11.812;2024-03-22T11:58:57;0.20;;;0.20;;
15841;SDS011;8021;48.022;11.812;2024-03-22T12:01:24;0.20;;;0.20;;
15841;SDS011;8021;48.022;11.812;2024-03-22T12:03:50;0.20;;;0.20;;
15841;SDS011;8021;48.022;11.812;2024-03-22T12:06:18;0.25;;;0.25;;
15841;SDS011;8021;48.022;11.812;2024-03-22T12:08:44;0.20;;;0.20;;
15841;SDS011;8021;48.022;11.812;2024-03-22T12:11:11;0.20;;;0.20;;
15841;SDS011;8021;48.022;11.812;2024-03-22T12:13:37;0.20;;;0.20;;
15841;SDS011;8021;48.022;11.812;2024-03-22T12:16:04;0.20;;;0.20;;
15841;SDS011;8021;48.022;11.812;2024-03-22T12:18:30;0.20;;;0.20;;
15841;SDS011;8021;48.022;11.812;2024-03-22T12:20:57;0.20;;;0.20;;
15841;SDS011;8021;48.022;11.812;2024-03-22T12:23:24;0.20;;;0.20;;
15841;SDS011;8021;48.022;11.812;2024-03-22T12:25:51;0.20;;;0.20;;
15841;SDS011;8021;48.022;11.812;2024-03-22T12:28:17;0.20;;;0.20;;
15841;SDS011;8021;48.022;11.812;2024-03-22T12:30:44;0.20;;;0.20;;
15841;SDS011;8021;48.022;11.812;2024-03-22T12:33:10;0.30;;;0.20;;
15841;SDS011;8021;48.022;11.812;2024-03-22T12:35:36;0.20;;;0.20;;
15841;SDS011;8021;48.022;11.812;2024-03-22T12:38:02;0.20;;;0.15;;
15841;SDS011;8021;48.022;11.812;2024-03-22T12:40:30;0.20;;;0.13;;
15841;SDS011;8021;48.022;11.812;2024-03-22T12:42:58;0.20;;;0.20;;
15841;SDS011;8021;48.022;11.812;2024-03-22T12:45:24;0.20;;;0.13;;
15841;SDS011;8021;48.022;11.812;2024-03-22T12:47:50;0.20;;;0.20;;
15841;SDS011;8021;48.022;11.812;2024-03-22T12:50:17;0.20;;;0.20;;
15841;SDS011;8021;48.022;11.812;2024-03-22T12:52:43;0.15;;;0.13;;
15841;SDS011;8021;48.022;11.812;2024-03-22T12:55:10;0.20;;;0.20;;
15841;SDS011;8021;48.022;11.812;2024-03-22T12:57:37;0.17;;;0.15;;
15841;SDS011;8021;48.022;11.812;2024-03-22T13:00:03;0.20;;;0.20;;
15841;SDS011;8021;48.022;11.812;2024-03-22T13:02:32;0.20;;;0.20;;
15841;SDS011;8021;48.022;11.812;2024-03-22T13:04:58;0.20;;;0.20;;
15841;SDS011;8021;48.022;11.812;2024-03-22T13:07:25;0.20;;;0.20;;
15841;SDS011;8021;48.022;11.812;2024-03-22T13:09:50;0.20;;;0.20;;
15841;SDS011;8021;48.022;11.812;2024-03-22T13:12:17;0.20;;;0.20;;
15841;SDS011;8021;48.022;11.812;2024-03-22T13:14:44;0.20;;;0.10;;
15841;SDS011;8021;48.022;11.812;2024-03-22T13:17:13;0.20;;;0.20;;
15841;SDS011;8021;48.022;11.812;2024-03-22T13:19:38;0.20;;;0.20;;
15841;SDS011;8021;48.022;11.812;2024-03-22T13:22:05;0.20;;;0.20;;
15841;SDS011;8021;48.022;11.812;2024-03-22T13:24:31;0.20;;;0.20;;
15841;SDS011;8021;48.022;11.812;2024-03-22T13:26:57;0.20;;;0.17;;
15841;SDS011;8021;48.022;11.812;2024-03-22T13:29:23;0.28;;;0.20;;
15841;SDS011;8021;48.022;11.812;2024-03-22T13:31:51;0.20;;;0.20;;
15841;SDS011;8021;48.022;11.812;2024-03-22T13:34:17;0.20;;;0.20;;
15841;SDS011;8021;48.022;11.812;2024-03-22T13:36:44;0.10;;;0.10;;
15841;SDS011;8021;48.022;11.812;2024-03-22T13:39:10;0.10;;;0.10;;
15841;SDS011;8021;48.022;11.812;2024-03-22T13:41:37;0.20;;;0.20;;
15841;SDS011;8021;48.022;11.812;2024-03-22T13:44:02;0.20;;;0.20;;
15841;SDS011;8021;48.022;11.812;2024-03-22T13:46:31;0.20;;;0.20;;
15841;SDS011;8021;48.022;11.812;2024-03-22T13:48:58;0.20;;;0.20;;
15841;SDS011;8021;48.022;11.812;2024-03-22T13:51:25;0.13;;;0.13;;
15841;SDS011;8021;48.022;11.812;2024-03-22T13:53:53;0.15;;;0.13;;
15841;SDS011;8021;48.022;11.812;2024-03-22T13:56:20;0.20;;;0.20;;
15841;SDS011;8021;48.022;11.812;2024-03-22T13:58:46;0.20;;;0.20;;
15841;SDS011;8021;48.022;11.812;2024-03-22T14:01:14;0.20;;;0.20;;
15841;SDS011;8021;48.022;11.812;2024-03-22T14:03:40;0.20;;;0.20;;
15841;SDS011;8021;48.022;11.812;2024-03-22T14:06:08;0.20;;;0.20;;
15841;SDS011;8021;48.022;11.812;2024-03-22T14:08:34;0.20;;;0.20;;
15841;SDS011;8021;48.022;11.812;2024-03-22T14:11:00;0.20;;;0.20;;
15841;SDS011;8021;48.022;11.812;2024-03-22T14:13:26;0.20;;;0.20;;
15841;SDS011;8021;48.022;11.812;2024-03-22T14:15:53;0.10;;;0.10;;
15841;SDS011;8021;48.022;11.812;2024-03-22T14:18:19;0.20;;;0.20;;
15841;SDS011;8021;48.022;11.812;2024-03-22T14:20:45;0.17;;;0.10;;
15841;SDS011;8021;48.022;11.812;2024-03-22T14:23:12;0.20;;;0.20;;
15841;SDS011;8021;48.022;11.812;2024-03-22T14:25:39;0.13;;;0.10;;
15841;SDS011;8021;48.022;11.812;2024-03-22T14:28:05;0.20;;;0.20;;
15841;SDS011;8021;48.022;11.812;2024-03-22T14:30:32;0.20;;;0.20;;
15841;SDS011;8021;48.022;11.812;2024-03-22T14:32:57;0.20;;;0.20;;
15841;SDS011;8021;48.022;11.812;2024-03-22T14:35:24;0.20;;;0.20;;
15841;SDS011;8021;48.022;11.812;2024-03-22T14:37:50;0.20;;;0.20;;
15841;SDS011;8021;48.022;11.812;2024-03-22T14:40:20;0.20;;;0.20;;
15841;SDS011;8021;48.022;11.812;2024-03-22T14:42:45;0.20;;;0.20;;
15841;SDS011;8021;48.022;11.812;2024-03-22T14:45:12;0.20;;;0.20;;